Monroe, Massachusetts
Current Conditions -  °F | °C
As of 10:52 AM on Monday 24 Nov 2014 (Local Time) from KAQW Reporting Station
Light Rain Light Rain  
Wind Chill: 63°   Ceiling: 5000
Heat Index: 63°   Visibility: 4mi
Dew Point: 58°   Wind: 13mph
Humidity: 84%   Direction: 210°SSW
Pressure: 29.61"   Gusts: NA
Location:  42.7226°N, 72.9829°W
Report Text: KAQW 241552Z AUTO 21011KT 4SM -RA FEW028 BKN050 OVC060 17/14 A2961 RMK AO2 SLP028 P0004 T01720144
Loading
Personal Weather Stations






























Interactive Weather Map New forecast layout! Learn more

10-Day Weather Forecast

Advertisements
Track Severe Weather on mobile